Terminal Aerodrome Forecast
Issued by NWS

Current Version | Previous Version | Text Only | Print | Product List | Glossary Off
Versions: 1 2 3 4 5 6 7 8 9 10 11 12 13 14 15 16 17 18 19 20 21 22 23 24 25 26 27 28 29 30 31 32 33

000
FTUS41 KPBZ 270539
TAFHLG
TAF
KHLG 270539Z 2706/2806 11006KT P6SM BKN050
     FM270630 11003KT P6SM -SHRA BKN030
     FM270800 04003KT P6SM BKN040
     FM280300 05002KT P6SM SCT250=

USA.gov is the U.S. government's official web portal to all federal, state and local government web resources and services.